Time,TemperatureF,DewpointF,PressureIn,WindDirection,WindDirectionDegrees,WindSpeedMPH,WindSpeedGustMPH,Humidity,HourlyPrecipIn,Conditions,Clouds,dailyrainin,SoftwareType,DateUTC
2013-01-18 00:00:00,32.7,30.3,0.00,WNW,293,0.0,3.1,91,0.00,,,0.23,WUHU216HW,2013-01-18 05:00:00,
2013-01-18 00:01:00,32.7,30.3,0.00,WNW,293,0.0,3.1,91,0.00,,,0.23,WUHU216HW,2013-01-18 05:01:00,
2013-01-18 00:02:00,32.7,30.3,0.00,WNW,293,0.0,2.4,91,0.00,,,0.23,WUHU216HW,2013-01-18 05:02:00,
2013-01-18 00:03:00,32.7,30.3,0.00,WNW,293,0.0,2.4,91,0.00,,,0.00,WUHU216HW,2013-01-18 05:03:00,
2013-01-18 00:08:00,32.5,30.2,0.00,WNW,293,0.0,6.4,91,0.00,,,0.00,WUHU216HW,2013-01-18 05:08:00,
2013-01-18 00:13:00,32.3,30.0,0.00,SSW,203,0.8,6.4,91,0.00,,,0.00,WUHU216HW,2013-01-18 05:13:00,
2013-01-18 00:18:00,32.3,30.0,0.00,SSE,158,0.0,2.4,91,0.00,,,0.00,WUHU216HW,2013-01-18 05:18:00,
2013-01-18 00:23:00,32.1,30.0,0.00,WNW,293,4.6,4.6,91,0.00,,,0.00,WUHU216HW,2013-01-18 05:23:00,
2013-01-18 00:28:00,32.1,29.8,0.00,WSW,248,0.0,4.6,91,0.00,,,0.00,WUHU216HW,2013-01-18 05:28:00,
2013-01-18 00:33:00,32.1,29.8,0.00,WSW,248,0.0,0.0,91,0.00,,,0.00,WUHU216HW,2013-01-18 05:33:00,
2013-01-18 00:38:00,32.1,29.6,0.00,WSW,248,0.0,0.0,90,0.00,,,0.00,WUHU216HW,2013-01-18 05:38:00,
2013-01-18 00:43:00,32.1,29.6,0.00,SSE,158,0.0,0.0,90,0.00,,,0.00,WUHU216HW,2013-01-18 05:43:00,
2013-01-18 00:48:00,32.0,29.4,0.00,NW,315,0.0,2.6,90,0.00,,,0.00,WUHU216HW,2013-01-18 05:48:00,
2013-01-18 00:53:00,32.0,29.4,0.00,NW,315,0.0,2.6,90,0.00,,,0.00,WUHU216HW,2013-01-18 05:53:00,
2013-01-18 00:58:00,31.8,29.3,0.00,NW,315,0.0,2.6,90,0.00,,,0.00,WUHU216HW,2013-01-18 05:58:00,
2013-01-18 01:03:00,31.8,29.3,0.00,NNE,23,0.0,2.9,90,0.00,,,0.00,WUHU216HW,2013-01-18 06:03:00,
2013-01-18 01:08:00,31.8,29.3,0.00,SW,225,0.0,2.9,90,0.00,,,0.00,WUHU216HW,2013-01-18 06:08:00,
2013-01-18 01:13:00,31.8,29.3,0.00,WNW,293,0.0,2.2,90,0.00,,,0.00,WUHU216HW,2013-01-18 06:13:00,
2013-01-18 01:18:00,31.8,29.3,0.00,WNW,293,0.0,2.2,90,0.00,,,0.00,WUHU216HW,2013-01-18 06:18:00,
2013-01-18 01:23:00,31.6,29.1,0.00,WNW,293,0.0,0.0,90,0.00,,,0.00,WUHU216HW,2013-01-18 06:23:00,
2013-01-18 01:28:00,31.6,29.1,0.00,NNW,338,0.0,1.3,90,0.00,,,0.00,WUHU216HW,2013-01-18 06:28:00,
2013-01-18 01:33:00,31.6,29.1,0.00,NW,315,0.0,1.3,90,0.00,,,0.00,WUHU216HW,2013-01-18 06:33:00,
2013-01-18 01:38:00,31.6,29.1,0.00,NW,315,0.0,0.6,90,0.00,,,0.00,WUHU216HW,2013-01-18 06:38:00,
2013-01-18 01:43:00,31.4,28.9,0.00,West,270,0.0,0.6,90,0.00,,,0.00,WUHU216HW,2013-01-18 06:43:00,
2013-01-18 01:48:00,31.2,28.7,0.00,NW,315,0.0,0.0,90,0.00,,,0.00,WUHU216HW,2013-01-18 06:48:00,
2013-01-18 01:53:00,31.2,28.7,0.00,West,270,0.0,0.0,90,0.00,,,0.00,WUHU216HW,2013-01-18 06:53:00,
2013-01-18 01:58:00,31.2,28.7,0.00,West,270,0.0,0.0,90,0.00,,,0.00,WUHU216HW,2013-01-18 06:58:00,
2013-01-18 02:03:00,31.2,28.7,0.00,West,270,0.0,0.8,90,0.00,,,0.00,WUHU216HW,2013-01-18 07:03:00,
2013-01-18 02:08:00,31.2,28.7,0.00,West,270,0.0,0.8,90,0.00,,,0.00,WUHU216HW,2013-01-18 07:08:00,
2013-01-18 02:13:00,31.1,28.5,0.00,West,270,0.0,0.0,90,0.00,,,0.00,WUHU216HW,2013-01-18 07:13:00,
2013-01-18 02:18:00,31.1,28.5,0.00,West,270,0.0,0.0,90,0.00,,,0.00,WUHU216HW,2013-01-18 07:18:00,
2013-01-18 02:23:00,30.9,28.4,0.00,South,180,0.0,1.1,90,0.00,,,0.00,WUHU216HW,2013-01-18 07:23:00,
2013-01-18 02:28:00,30.9,28.4,0.00,SSE,158,0.0,1.1,90,0.00,,,0.00,WUHU216HW,2013-01-18 07:28:00,
2013-01-18 02:33:00,30.9,28.4,0.00,West,270,0.0,0.0,90,0.00,,,0.00,WUHU216HW,2013-01-18 07:33:00,
2013-01-18 02:38:00,30.9,28.4,0.00,West,270,0.0,0.0,90,0.00,,,0.00,WUHU216HW,2013-01-18 07:38:00,
2013-01-18 02:43:00,30.9,28.2,0.00,West,270,0.0,0.0,90,0.00,,,0.00,WUHU216HW,2013-01-18 07:43:00,
2013-01-18 02:48:00,30.7,28.2,0.00,WNW,293,0.0,2.0,90,0.00,,,0.00,WUHU216HW,2013-01-18 07:48:00,
2013-01-18 02:53:00,30.7,28.2,0.00,NW,315,0.0,2.0,90,0.00,,,0.00,WUHU216HW,2013-01-18 07:53:00,
2013-01-18 02:58:00,30.7,28.2,0.00,North,0,0.0,4.4,90,0.00,,,0.00,WUHU216HW,2013-01-18 07:58:00,
2013-01-18 03:03:00,30.7,28.2,0.00,NNW,338,0.0,4.4,90,0.00,,,0.00,WUHU216HW,2013-01-18 08:03:00,
2013-01-18 03:08:00,30.7,28.2,0.00,NNW,338,0.0,1.1,90,0.00,,,0.00,WUHU216HW,2013-01-18 08:08:00,
2013-01-18 03:13:00,30.7,28.2,0.00,NNW,338,0.0,0.0,90,0.00,,,0.00,WUHU216HW,2013-01-18 08:13:00,
2013-01-18 03:18:00,30.7,28.2,0.00,North,0,0.0,0.0,90,0.00,,,0.00,WUHU216HW,2013-01-18 08:18:00,
2013-01-18 03:23:00,30.7,27.9,0.00,WNW,293,0.0,0.0,89,0.00,,,0.00,WUHU216HW,2013-01-18 08:23:00,
2013-01-18 03:28:00,30.5,27.7,0.00,WNW,293,0.0,0.0,89,0.00,,,0.00,WUHU216HW,2013-01-18 08:28:00,
2013-01-18 03:33:00,30.5,27.7,0.00,WNW,293,0.0,0.0,89,0.00,,,0.00,WUHU216HW,2013-01-18 08:33:00,
2013-01-18 03:38:00,30.5,27.7,0.00,West,270,0.0,0.0,89,0.00,,,0.00,WUHU216HW,2013-01-18 08:38:00,
2013-01-18 03:43:00,30.5,27.7,0.00,West,270,0.0,0.0,89,0.00,,,0.00,WUHU216HW,2013-01-18 08:43:00,
2013-01-18 03:48:00,30.3,27.5,0.00,WSW,248,0.0,0.0,89,0.00,,,0.00,WUHU216HW,2013-01-18 08:48:00,
2013-01-18 03:53:00,30.3,27.5,0.00,WSW,248,0.0,0.0,89,0.00,,,0.00,WUHU216HW,2013-01-18 08:53:00,
2013-01-18 03:58:00,30.3,27.5,0.00,SSW,203,0.0,0.0,89,0.00,,,0.00,WUHU216HW,2013-01-18 08:58:00,
2013-01-18 04:03:00,30.3,27.5,0.00,SSE,158,0.0,0.0,89,0.00,,,0.00,WUHU216HW,2013-01-18 09:03:00,
2013-01-18 04:08:00,30.2,27.3,0.00,SSE,158,0.0,0.0,89,0.00,,,0.00,WUHU216HW,2013-01-18 09:08:00,
2013-01-18 04:13:00,30.2,27.3,0.00,WSW,248,0.0,0.0,89,0.00,,,0.00,WUHU216HW,2013-01-18 09:13:00,
2013-01-18 04:18:00,30.0,27.2,0.00,West,270,0.0,0.0,89,0.00,,,0.00,WUHU216HW,2013-01-18 09:18:00,
2013-01-18 04:23:00,30.0,27.2,0.00,West,270,0.0,0.0,89,0.00,,,0.00,WUHU216HW,2013-01-18 09:23:00,
2013-01-18 04:28:00,30.0,27.2,0.00,West,270,0.0,0.0,89,0.00,,,0.00,WUHU216HW,2013-01-18 09:28:00,
2013-01-18 04:33:00,30.0,27.2,0.00,NNW,338,0.0,0.0,89,0.00,,,0.00,WUHU216HW,2013-01-18 09:33:00,
2013-01-18 04:38:00,30.0,27.2,0.00,North,0,0.0,0.0,89,0.00,,,0.00,WUHU216HW,2013-01-18 09:38:00,
2013-01-18 04:43:00,30.0,27.2,0.00,NW,315,0.0,0.0,89,0.00,,,0.00,WUHU216HW,2013-01-18 09:43:00,
2013-01-18 04:48:00,30.0,27.2,0.00,WNW,293,0.0,2.6,89,0.00,,,0.00,WUHU216HW,2013-01-18 09:48:00,
2013-01-18 04:53:00,30.0,27.2,0.00,SE,135,0.0,2.6,89,0.00,,,0.00,WUHU216HW,2013-01-18 09:53:00,
2013-01-18 04:58:00,29.8,27.0,0.00,SE,135,0.0,0.0,89,0.00,,,0.00,WUHU216HW,2013-01-18 09:58:00,
2013-01-18 05:03:00,30.0,27.2,0.00,NNW,338,0.0,0.0,89,0.00,,,0.00,WUHU216HW,2013-01-18 10:03:00,
2013-01-18 05:08:00,29.8,27.0,0.00,WNW,293,0.0,0.0,89,0.00,,,0.00,WUHU216HW,2013-01-18 10:08:00,
2013-01-18 05:13:00,29.8,27.0,0.00,WNW,293,0.0,0.0,89,0.00,,,0.00,WUHU216HW,2013-01-18 10:13:00,
2013-01-18 05:18:00,29.8,27.0,0.00,SW,225,0.0,0.0,89,0.00,,,0.00,WUHU216HW,2013-01-18 10:18:00,
2013-01-18 05:23:00,29.8,27.0,0.00,SW,225,0.0,0.0,89,0.00,,,0.00,WUHU216HW,2013-01-18 10:23:00,
2013-01-18 05:28:00,29.6,26.8,0.00,SSE,158,0.0,0.0,89,0.00,,,0.00,WUHU216HW,2013-01-18 10:28:00,
2013-01-18 05:33:00,29.6,26.8,0.00,North,0,0.0,0.0,89,0.00,,,0.00,WUHU216HW,2013-01-18 10:33:00,
2013-01-18 05:38:00,29.6,26.8,0.00,NW,315,0.0,0.0,89,0.00,,,0.00,WUHU216HW,2013-01-18 10:38:00,
2013-01-18 05:43:00,29.4,26.3,0.00,NW,315,0.2,0.2,88,0.00,,,0.00,WUHU216HW,2013-01-18 10:43:00,
2013-01-18 05:48:00,29.4,26.3,0.00,SE,135,0.0,0.2,88,0.00,,,0.00,WUHU216HW,2013-01-18 10:48:00,
2013-01-18 05:53:00,29.4,26.3,0.00,NW,315,0.0,0.0,88,0.00,,,0.00,WUHU216HW,2013-01-18 10:53:00,
2013-01-18 05:58:00,29.4,26.3,0.00,WSW,248,0.0,0.0,88,0.00,,,0.00,WUHU216HW,2013-01-18 10:58:00,
2013-01-18 06:03:00,29.3,26.2,0.00,West,270,0.0,0.0,88,0.00,,,0.00,WUHU216HW,2013-01-18 11:03:00,
2013-01-18 06:08:00,29.3,26.2,0.00,West,270,0.0,0.0,88,0.00,,,0.00,WUHU216HW,2013-01-18 11:08:00,
2013-01-18 06:13:00,29.3,26.2,0.00,WSW,248,0.0,0.0,88,0.00,,,0.00,WUHU216HW,2013-01-18 11:13:00,
2013-01-18 06:18:00,29.3,26.2,0.00,WNW,293,0.0,0.0,88,0.00,,,0.00,WUHU216HW,2013-01-18 11:18:00,
2013-01-18 06:23:00,29.3,26.2,0.00,South,180,0.0,0.0,88,0.00,,,0.00,WUHU216HW,2013-01-18 11:23:00,
2013-01-18 06:28:00,29.3,26.2,0.00,South,180,0.0,0.0,88,0.00,,,0.00,WUHU216HW,2013-01-18 11:28:00,
2013-01-18 06:33:00,29.1,26.0,0.00,North,0,0.0,0.0,88,0.00,,,0.00,WUHU216HW,2013-01-18 11:33:00,
2013-01-18 06:38:00,29.1,26.0,0.00,NNW,338,0.0,0.0,88,0.00,,,0.00,WUHU216HW,2013-01-18 11:38:00,
2013-01-18 06:43:00,29.1,26.0,0.00,WNW,293,0.0,0.0,88,0.00,,,0.00,WUHU216HW,2013-01-18 11:43:00,
2013-01-18 06:48:00,29.1,26.0,0.00,SSE,158,0.0,0.0,88,0.00,,,0.00,WUHU216HW,2013-01-18 11:48:00,
2013-01-18 06:53:00,29.1,26.0,0.00,SSE,158,0.0,0.0,88,0.00,,,0.00,WUHU216HW,2013-01-18 11:53:00,
2013-01-18 06:58:00,29.1,26.0,0.00,NW,315,0.0,2.6,88,0.00,,,0.00,WUHU216HW,2013-01-18 11:58:00,
2013-01-18 07:03:00,29.1,26.0,0.00,SSW,203,0.0,2.6,88,0.00,,,0.00,WUHU216HW,2013-01-18 12:03:00,
2013-01-18 07:08:00,29.1,26.0,0.00,SSW,203,0.0,0.0,88,0.00,,,0.00,WUHU216HW,2013-01-18 12:08:00,
2013-01-18 07:13:00,29.1,26.0,0.00,SSW,203,0.0,0.0,88,0.00,,,0.00,WUHU216HW,2013-01-18 12:13:00,
2013-01-18 07:18:00,29.1,26.0,0.00,NW,315,0.0,0.0,88,0.00,,,0.00,WUHU216HW,2013-01-18 12:18:00,
2013-01-18 07:23:00,29.1,26.0,0.00,WNW,293,0.0,0.0,88,0.00,,,0.00,WUHU216HW,2013-01-18 12:23:00,
2013-01-18 07:28:00,29.1,26.0,0.00,WNW,293,0.0,0.0,88,0.00,,,0.00,WUHU216HW,2013-01-18 12:28:00,
2013-01-18 07:33:00,28.9,25.8,0.00,West,270,0.0,0.0,88,0.00,,,0.00,WUHU216HW,2013-01-18 12:33:00,
2013-01-18 07:38:00,28.9,25.8,0.00,WNW,293,0.0,0.0,88,0.00,,,0.00,WUHU216HW,2013-01-18 12:38:00,
2013-01-18 07:43:00,28.9,25.8,0.00,WNW,293,0.0,0.0,88,0.00,,,0.00,WUHU216HW,2013-01-18 12:43:00,
2013-01-18 07:48:00,28.9,25.8,0.00,WNW,293,0.0,0.0,88,0.00,,,0.00,WUHU216HW,2013-01-18 12:48:00,
2013-01-18 07:53:00,28.9,25.8,0.00,WNW,293,0.0,0.0,88,0.00,,,0.00,WUHU216HW,2013-01-18 12:53:00,
2013-01-18 07:58:00,28.9,25.8,0.00,WNW,293,0.0,0.0,88,0.00,,,0.00,WUHU216HW,2013-01-18 12:58:00,
2013-01-18 08:03:00,28.9,25.8,0.00,WNW,293,0.0,0.0,88,0.00,,,0.00,WUHU216HW,2013-01-18 13:03:00,
2013-01-18 08:08:00,28.9,25.8,0.00,WNW,293,0.0,0.0,88,0.00,,,0.00,WUHU216HW,2013-01-18 13:08:00,
2013-01-18 08:13:00,29.1,26.0,0.00,WNW,293,0.0,0.0,88,0.00,,,0.00,WUHU216HW,2013-01-18 13:13:00,
2013-01-18 08:18:00,29.1,26.0,0.00,WNW,293,0.0,0.0,88,0.00,,,0.00,WUHU216HW,2013-01-18 13:18:00,
2013-01-18 08:23:00,29.1,26.0,0.00,WNW,293,0.0,0.0,88,0.00,,,0.00,WUHU216HW,2013-01-18 13:23:00,
2013-01-18 08:28:00,29.1,26.0,0.00,WNW,293,0.0,0.0,88,0.00,,,0.00,WUHU216HW,2013-01-18 13:28:00,
2013-01-18 08:33:00,29.1,26.0,0.00,WNW,293,0.0,0.0,88,0.00,,,0.00,WUHU216HW,2013-01-18 13:33:00,
2013-01-18 08:38:00,29.1,26.0,0.00,WNW,293,0.0,0.0,88,0.00,,,0.00,WUHU216HW,2013-01-18 13:38:00,
2013-01-18 08:43:00,29.1,26.0,0.00,WNW,293,0.0,0.0,88,0.00,,,0.00,WUHU216HW,2013-01-18 13:43:00,
2013-01-18 08:48:00,29.1,26.0,0.00,SSE,158,0.0,0.0,88,0.00,,,0.00,WUHU216HW,2013-01-18 13:48:00,
2013-01-18 08:53:00,29.1,26.0,0.00,WSW,248,0.0,0.0,88,0.00,,,0.00,WUHU216HW,2013-01-18 13:53:00,
2013-01-18 08:58:00,29.3,26.2,0.00,WSW,248,0.0,0.0,88,0.00,,,0.00,WUHU216HW,2013-01-18 13:58:00,
2013-01-18 09:03:00,29.4,26.3,0.00,WSW,248,0.0,0.0,88,0.00,,,0.00,WUHU216HW,2013-01-18 14:03:00,
2013-01-18 09:08:00,29.4,26.3,0.00,NW,315,0.0,0.0,88,0.00,,,0.00,WUHU216HW,2013-01-18 14:08:00,
2013-01-18 09:13:00,29.6,26.5,0.00,WNW,293,0.0,0.0,88,0.00,,,0.00,WUHU216HW,2013-01-18 14:13:00,
2013-01-18 09:18:00,29.8,26.7,0.00,WNW,293,0.0,0.0,88,0.00,,,0.00,WUHU216HW,2013-01-18 14:18:00,
2013-01-18 09:23:00,30.0,26.9,0.00,WSW,248,0.0,0.0,88,0.00,,,0.00,WUHU216HW,2013-01-18 14:23:00,
2013-01-18 09:28:00,30.0,26.9,0.00,WSW,248,0.0,0.0,88,0.00,,,0.00,WUHU216HW,2013-01-18 14:28:00,
2013-01-18 09:33:00,30.2,27.1,0.00,WSW,248,0.0,0.0,88,0.00,,,0.00,WUHU216HW,2013-01-18 14:33:00,
2013-01-18 09:38:00,30.3,27.2,0.00,WSW,248,0.0,0.0,88,0.00,,,0.00,WUHU216HW,2013-01-18 14:38:00,
2013-01-18 09:43:00,30.7,27.6,0.00,WSW,248,0.0,0.0,88,0.00,,,0.00,WUHU216HW,2013-01-18 14:43:00,
2013-01-18 09:48:00,30.7,27.6,0.00,West,270,0.0,0.0,88,0.00,,,0.00,WUHU216HW,2013-01-18 14:48:00,
2013-01-18 09:53:00,31.1,28.0,0.00,South,180,0.0,0.0,88,0.00,,,0.00,WUHU216HW,2013-01-18 14:53:00,
2013-01-18 09:58:00,31.1,27.7,0.00,SSE,158,0.0,0.0,87,0.00,,,0.00,WUHU216HW,2013-01-18 14:58:00,
2013-01-18 10:03:00,31.4,28.0,0.00,WSW,248,0.0,0.0,87,0.00,,,0.00,WUHU216HW,2013-01-18 15:03:00,
2013-01-18 10:08:00,31.6,28.2,0.00,WSW,248,0.0,0.0,87,0.00,,,0.00,WUHU216HW,2013-01-18 15:08:00,
2013-01-18 10:13:00,31.8,28.4,0.00,NW,315,0.0,0.0,87,0.00,,,0.00,WUHU216HW,2013-01-18 15:13:00,
2013-01-18 10:18:00,32.1,28.7,0.00,South,180,0.0,0.0,87,0.00,,,0.00,WUHU216HW,2013-01-18 15:18:00,
2013-01-18 10:23:00,32.1,28.4,0.00,SSE,158,0.0,0.0,86,0.00,,,0.00,WUHU216HW,2013-01-18 15:23:00,
2013-01-18 10:28:00,32.3,28.9,0.00,SSE,158,0.0,0.0,87,0.00,,,0.00,WUHU216HW,2013-01-18 15:28:00,
2013-01-18 10:33:00,32.9,29.4,0.00,SSE,158,0.0,0.0,87,0.00,,,0.00,WUHU216HW,2013-01-18 15:33:00,
2013-01-18 10:38:00,34.3,30.2,0.00,SSE,158,0.0,0.0,85,0.00,,,0.00,WUHU216HW,2013-01-18 15:38:00,
2013-01-18 10:43:00,34.5,30.3,0.00,SSE,158,0.0,0.0,85,0.00,,,0.00,WUHU216HW,2013-01-18 15:43:00,
2013-01-18 10:48:00,34.8,30.7,0.00,SSE,158,0.0,0.0,85,0.00,,,0.00,WUHU216HW,2013-01-18 15:48:00,
2013-01-18 10:53:00,35.7,31.3,0.00,SSE,158,0.0,0.0,84,0.00,,,0.00,WUHU216HW,2013-01-18 15:53:00,
2013-01-18 10:58:00,36.1,31.8,0.00,NNW,338,0.0,0.0,84,0.00,,,0.00,WUHU216HW,2013-01-18 15:58:00,
2013-01-18 11:03:00,36.8,32.1,0.00,West,270,0.0,0.0,83,0.00,,,0.00,WUHU216HW,2013-01-18 16:03:00,
2013-01-18 11:08:00,37.2,32.2,0.00,WNW,293,0.0,0.0,82,0.00,,,0.00,WUHU216HW,2013-01-18 16:08:00,
2013-01-18 11:13:00,37.9,32.6,0.00,WNW,293,0.0,0.0,81,0.00,,,0.00,WUHU216HW,2013-01-18 16:13:00,
2013-01-18 11:18:00,37.5,31.8,0.00,SSW,203,0.0,0.0,80,0.00,,,0.00,WUHU216HW,2013-01-18 16:18:00,
2013-01-18 11:23:00,37.2,31.9,0.00,SW,225,0.0,0.0,81,0.00,,,0.00,WUHU216HW,2013-01-18 16:23:00,
2013-01-18 11:28:00,37.2,31.9,0.00,SW,225,0.0,0.0,81,0.00,,,0.00,WUHU216HW,2013-01-18 16:28:00,
2013-01-18 11:33:00,37.2,31.9,0.00,SW,225,0.0,0.0,81,0.00,,,0.00,WUHU216HW,2013-01-18 16:33:00,
2013-01-18 11:38:00,40.2,34.2,0.00,SW,225,0.0,0.0,80,0.00,,,0.00,WUHU216HW,2013-01-18 16:38:00,
2013-01-18 11:43:00,41.7,34.6,0.00,SW,225,0.0,0.0,76,0.00,,,0.00,WUHU216HW,2013-01-18 16:43:00,
2013-01-18 11:48:00,42.6,35.2,0.00,WNW,293,0.0,0.0,75,0.00,,,0.00,WUHU216HW,2013-01-18 16:48:00,
2013-01-18 11:53:00,43.3,34.9,0.00,WNW,293,0.0,0.0,72,0.00,,,0.00,WUHU216HW,2013-01-18 16:53:00,
2013-01-18 11:58:00,42.9,34.6,0.00,WNW,293,0.0,0.0,72,0.00,,,0.00,WUHU216HW,2013-01-18 16:58:00,
2013-01-18 12:03:00,42.9,33.9,0.00,SSE,158,0.0,0.0,70,0.00,,,0.00,WUHU216HW,2013-01-18 17:03:00,
2013-01-18 12:08:00,41.5,32.8,0.00,South,180,0.0,0.0,71,0.00,,,0.00,WUHU216HW,2013-01-18 17:08:00,
2013-01-18 12:13:00,40.6,31.9,0.00,South,180,0.0,0.0,71,0.00,,,0.00,WUHU216HW,2013-01-18 17:13:00,
2013-01-18 12:18:00,39.9,31.5,0.00,SSE,158,0.0,0.0,72,0.00,,,0.00,WUHU216HW,2013-01-18 17:18:00,
2013-01-18 12:23:00,39.0,30.7,0.00,South,180,0.0,0.0,72,0.00,,,0.00,WUHU216HW,2013-01-18 17:23:00,
2013-01-18 12:28:00,38.4,30.5,0.00,SSE,158,0.0,0.0,73,0.00,,,0.00,WUHU216HW,2013-01-18 17:28:00,
2013-01-18 12:33:00,38.1,30.2,0.00,SSE,158,0.0,0.0,73,0.00,,,0.00,WUHU216HW,2013-01-18 17:33:00,
2013-01-18 12:38:00,37.9,30.0,0.00,WSW,248,0.0,0.0,73,0.00,,,0.00,WUHU216HW,2013-01-18 17:38:00,
2013-01-18 12:43:00,37.9,30.2,0.00,WSW,248,0.0,0.0,73,0.00,,,0.00,WUHU216HW,2013-01-18 17:43:00,
2013-01-18 12:48:00,37.9,30.0,0.00,WSW,248,0.0,0.0,73,0.00,,,0.00,WUHU216HW,2013-01-18 17:48:00,
2013-01-18 12:53:00,38.1,30.2,0.00,WSW,248,0.0,0.0,73,0.00,,,0.00,WUHU216HW,2013-01-18 17:53:00,
2013-01-18 12:58:00,38.1,30.2,0.00,WSW,248,0.0,0.0,73,0.00,,,0.00,WUHU216HW,2013-01-18 17:58:00,
2013-01-18 13:03:00,38.3,30.0,0.00,WSW,248,0.0,0.0,72,0.00,,,0.00,WUHU216HW,2013-01-18 18:03:00,
2013-01-18 13:08:00,38.3,30.0,0.00,WSW,248,0.0,0.0,72,0.00,,,0.00,WUHU216HW,2013-01-18 18:08:00,
2013-01-18 13:13:00,38.4,30.2,0.00,WSW,248,0.0,0.0,72,0.00,,,0.00,WUHU216HW,2013-01-18 18:13:00,
2013-01-18 13:18:00,38.6,30.3,0.00,WSW,248,0.0,0.0,72,0.00,,,0.00,WUHU216HW,2013-01-18 18:18:00,
2013-01-18 13:23:00,38.8,30.5,0.00,WSW,248,0.0,0.0,72,0.00,,,0.00,WUHU216HW,2013-01-18 18:23:00,
2013-01-18 13:28:00,39.0,30.7,0.00,WSW,248,0.0,0.0,72,0.00,,,0.00,WUHU216HW,2013-01-18 18:28:00,
2013-01-18 13:34:00,39.0,30.7,0.00,NE,45,0.0,0.0,72,0.00,,,0.00,WUHU216HW,2013-01-18 18:34:00,
2013-01-18 13:39:00,39.3,30.7,0.00,North,0,0.0,0.0,71,0.00,,,0.00,WUHU216HW,2013-01-18 18:39:00,
2013-01-18 13:44:00,39.7,30.7,0.00,NE,45,0.0,0.0,70,0.00,,,0.00,WUHU216HW,2013-01-18 18:44:00,
2013-01-18 13:49:00,39.9,30.9,0.00,NE,45,0.0,0.0,70,0.00,,,0.00,WUHU216HW,2013-01-18 18:49:00,
2013-01-18 13:54:00,40.1,30.9,0.00,ENE,68,0.0,0.0,70,0.00,,,0.00,WUHU216HW,2013-01-18 18:54:00,
2013-01-18 13:59:00,40.1,31.1,0.00,NE,45,0.0,0.0,70,0.00,,,0.00,WUHU216HW,2013-01-18 18:59:00,
2013-01-18 14:04:00,40.1,31.1,0.00,ENE,68,0.0,0.0,70,0.00,,,0.00,WUHU216HW,2013-01-18 19:04:00,
2013-01-18 14:09:00,40.1,31.1,0.00,NE,45,0.0,0.0,70,0.00,,,0.00,WUHU216HW,2013-01-18 19:09:00,
2013-01-18 14:14:00,40.2,31.2,0.00,ENE,68,0.0,0.0,70,0.00,,,0.00,WUHU216HW,2013-01-18 19:14:00,
2013-01-18 14:19:00,40.2,31.2,0.00,ENE,68,0.0,0.0,70,0.00,,,0.00,WUHU216HW,2013-01-18 19:19:00,
2013-01-18 14:24:00,40.2,31.2,0.00,NE,45,0.0,0.0,70,0.00,,,0.00,WUHU216HW,2013-01-18 19:24:00,
2013-01-18 14:29:00,40.2,30.9,0.00,SSE,158,0.0,0.0,69,0.00,,,0.00,WUHU216HW,2013-01-18 19:29:00,
2013-01-18 14:34:00,40.2,30.5,0.00,SSE,158,0.0,0.0,68,0.00,,,0.00,WUHU216HW,2013-01-18 19:34:00,
2013-01-18 14:39:00,40.2,30.5,0.00,SSE,158,0.0,0.0,68,0.00,,,0.00,WUHU216HW,2013-01-18 19:39:00,
2013-01-18 14:44:00,40.2,30.9,0.00,SSE,158,0.0,0.0,69,0.00,,,0.00,WUHU216HW,2013-01-18 19:44:00,
2013-01-18 14:49:00,40.1,30.7,0.00,SSE,158,0.0,0.0,69,0.00,,,0.00,WUHU216HW,2013-01-18 19:49:00,
2013-01-18 14:54:00,40.1,30.7,0.00,SSE,158,0.0,0.0,69,0.00,,,0.00,WUHU216HW,2013-01-18 19:54:00,
2013-01-18 14:59:00,40.1,30.7,0.00,SSE,158,0.0,0.0,69,0.00,,,0.00,WUHU216HW,2013-01-18 19:59:00,
2013-01-18 15:04:00,40.2,30.7,0.00,SSE,158,0.0,0.0,69,0.00,,,0.00,WUHU216HW,2013-01-18 20:04:00,
2013-01-18 15:09:00,40.2,30.9,0.00,SSE,158,0.0,0.0,69,0.00,,,0.00,WUHU216HW,2013-01-18 20:09:00,
2013-01-18 15:14:00,40.2,30.9,0.00,SSE,158,0.0,0.0,69,0.00,,,0.00,WUHU216HW,2013-01-18 20:14:00,
2013-01-18 15:19:00,40.4,31.0,0.00,SSE,158,0.0,0.0,69,0.00,,,0.00,WUHU216HW,2013-01-18 20:19:00,
2013-01-18 15:24:00,40.6,30.8,0.00,SE,135,0.0,0.0,68,0.00,,,0.00,WUHU216HW,2013-01-18 20:24:00,
2013-01-18 15:29:00,40.4,30.7,0.00,SE,135,0.0,0.0,68,0.00,,,0.00,WUHU216HW,2013-01-18 20:29:00,
2013-01-18 15:34:00,40.4,30.7,0.00,SE,135,0.0,0.0,68,0.00,,,0.00,WUHU216HW,2013-01-18 20:34:00,
2013-01-18 15:39:00,40.4,30.7,0.00,SE,135,0.0,0.0,68,0.00,,,0.00,WUHU216HW,2013-01-18 20:39:00,
2013-01-18 15:44:00,40.6,30.8,0.00,SE,135,0.0,0.0,68,0.00,,,0.00,WUHU216HW,2013-01-18 20:44:00,
2013-01-18 15:49:00,40.8,30.6,0.00,SE,135,0.0,0.0,67,0.00,,,0.00,WUHU216HW,2013-01-18 20:49:00,
2013-01-18 15:54:00,40.6,30.1,0.00,SE,135,0.0,0.0,66,0.00,,,0.00,WUHU216HW,2013-01-18 20:54:00,
2013-01-18 15:59:00,40.8,30.3,0.00,SE,135,0.0,0.0,66,0.00,,,0.00,WUHU216HW,2013-01-18 20:59:00,
2013-01-18 16:04:00,40.8,30.3,0.00,SE,135,0.0,0.0,66,0.00,,,0.00,WUHU216HW,2013-01-18 21:04:00,
2013-01-18 16:09:00,40.8,30.3,0.00,SE,135,0.0,0.0,66,0.00,,,0.00,WUHU216HW,2013-01-18 21:09:00,
2013-01-18 16:14:00,40.6,30.1,0.00,SE,135,0.0,0.0,66,0.00,,,0.00,WUHU216HW,2013-01-18 21:14:00,
2013-01-18 16:19:00,40.4,29.9,0.00,SE,135,0.0,0.0,66,0.00,,,0.00,WUHU216HW,2013-01-18 21:19:00,
2013-01-18 16:24:00,40.4,30.3,0.00,SE,135,0.0,0.0,67,0.00,,,0.00,WUHU216HW,2013-01-18 21:24:00,
2013-01-18 16:29:00,40.6,30.1,0.00,SE,135,0.0,0.0,66,0.00,,,0.00,WUHU216HW,2013-01-18 21:29:00,
2013-01-18 16:34:00,40.6,30.1,0.00,SE,135,0.0,0.0,66,0.00,,,0.00,WUHU216HW,2013-01-18 21:34:00,
2013-01-18 16:39:00,40.6,30.1,0.00,SE,135,0.0,0.0,66,0.00,,,0.00,WUHU216HW,2013-01-18 21:39:00,
2013-01-18 16:44:00,40.6,30.1,0.00,SE,135,0.0,0.0,66,0.00,,,0.00,WUHU216HW,2013-01-18 21:44:00,
2013-01-18 16:49:00,40.4,29.9,0.00,SE,135,0.0,0.0,66,0.00,,,0.00,WUHU216HW,2013-01-18 21:49:00,
2013-01-18 16:54:00,40.2,29.7,0.00,SE,135,0.0,0.0,66,0.00,,,0.00,WUHU216HW,2013-01-18 21:54:00,
2013-01-18 16:59:00,40.1,29.5,0.00,SE,135,0.0,0.0,66,0.00,,,0.00,WUHU216HW,2013-01-18 21:59:00,
2013-01-18 17:04:00,39.9,29.4,0.00,SE,135,0.0,0.0,66,0.00,,,0.00,WUHU216HW,2013-01-18 22:04:00,
2013-01-18 17:09:00,39.7,29.2,0.00,SE,135,0.0,0.0,66,0.00,,,0.00,WUHU216HW,2013-01-18 22:09:00,
2013-01-18 17:14:00,39.5,29.4,0.00,SE,135,0.0,0.0,67,0.00,,,0.00,WUHU216HW,2013-01-18 22:14:00,
2013-01-18 17:19:00,39.3,29.2,0.00,SE,135,0.0,0.0,67,0.00,,,0.00,WUHU216HW,2013-01-18 22:19:00,
2013-01-18 17:24:00,39.3,29.2,0.00,SE,135,0.0,0.0,67,0.00,,,0.00,WUHU216HW,2013-01-18 22:24:00,
2013-01-18 17:29:00,39.0,28.9,0.00,SE,135,0.0,0.0,67,0.00,,,0.00,WUHU216HW,2013-01-18 22:29:00,
2013-01-18 17:34:00,38.8,28.7,0.00,SE,135,0.0,0.0,67,0.00,,,0.00,WUHU216HW,2013-01-18 22:34:00,
2013-01-18 17:39:00,38.4,28.7,0.00,SE,135,0.0,0.0,68,0.00,,,0.00,WUHU216HW,2013-01-18 22:39:00,
2013-01-18 17:44:00,38.4,28.7,0.00,SE,135,0.0,0.0,68,0.00,,,0.00,WUHU216HW,2013-01-18 22:44:00,
2013-01-18 17:49:00,38.1,28.4,0.00,SE,135,0.0,0.0,68,0.00,,,0.00,WUHU216HW,2013-01-18 22:49:00,
2013-01-18 17:54:00,37.9,28.3,0.00,SE,135,0.0,0.0,68,0.00,,,0.00,WUHU216HW,2013-01-18 22:54:00,
2013-01-18 17:59:00,37.5,27.9,0.00,SE,135,0.0,0.0,68,0.00,,,0.00,WUHU216HW,2013-01-18 22:59:00,
2013-01-18 18:04:00,37.4,28.2,0.00,SE,135,0.0,0.0,69,0.00,,,0.00,WUHU216HW,2013-01-18 23:04:00,
2013-01-18 18:09:00,37.2,28.4,0.00,SE,135,0.0,0.0,70,0.00,,,0.00,WUHU216HW,2013-01-18 23:09:00,
2013-01-18 18:14:00,37.2,28.4,0.00,SE,135,0.0,0.0,70,0.00,,,0.00,WUHU216HW,2013-01-18 23:14:00,
2013-01-18 18:19:00,36.8,28.2,0.00,SE,135,0.0,0.0,70,0.00,,,0.00,WUHU216HW,2013-01-18 23:19:00,
2013-01-18 18:24:00,36.6,27.8,0.00,SE,135,0.0,0.0,70,0.00,,,0.00,WUHU216HW,2013-01-18 23:24:00,
2013-01-18 18:29:00,36.5,28.0,0.00,SE,135,0.0,0.0,71,0.00,,,0.00,WUHU216HW,2013-01-18 23:29:00,
2013-01-18 18:34:00,36.1,27.8,0.00,SE,135,0.0,0.0,71,0.00,,,0.00,WUHU216HW,2013-01-18 23:34:00,
2013-01-18 18:39:00,35.7,27.6,0.00,SE,135,0.0,0.0,72,0.00,,,0.00,WUHU216HW,2013-01-18 23:39:00,
2013-01-18 18:44:00,35.4,27.2,0.00,SE,135,0.0,0.0,72,0.00,,,0.00,WUHU216HW,2013-01-18 23:44:00,
2013-01-18 18:49:00,35.2,27.0,0.00,SE,135,0.0,0.0,72,0.00,,,0.00,WUHU216HW,2013-01-18 23:49:00,
2013-01-18 18:54:00,35.2,27.3,0.00,SE,135,0.0,0.0,73,0.00,,,0.00,WUHU216HW,2013-01-18 23:54:00,
2013-01-18 18:59:00,35.0,27.2,0.00,SE,135,0.0,0.0,73,0.00,,,0.00,WUHU216HW,2013-01-18 23:59:00,
2013-01-18 19:04:00,34.7,26.8,0.00,North,0,0.0,0.0,73,0.00,,,0.00,WUHU216HW,2013-01-19 00:04:00,
2013-01-18 19:09:00,34.5,26.6,0.00,SE,135,0.0,0.0,73,0.00,,,0.00,WUHU216HW,2013-01-19 00:09:00,
2013-01-18 19:14:00,34.3,26.8,0.00,SE,135,0.0,0.0,74,0.00,,,0.00,WUHU216HW,2013-01-19 00:14:00,
2013-01-18 19:19:00,34.3,26.8,0.00,SE,135,0.0,0.0,74,0.00,,,0.00,WUHU216HW,2013-01-19 00:19:00,
2013-01-18 19:24:00,33.9,26.4,0.00,SE,135,0.0,0.0,74,0.00,,,0.00,WUHU216HW,2013-01-19 00:24:00,
2013-01-18 19:29:00,33.6,26.4,0.00,SE,135,0.0,0.0,75,0.00,,,0.00,WUHU216HW,2013-01-19 00:29:00,
2013-01-18 19:34:00,33.4,26.2,0.00,SE,135,0.0,0.0,75,0.00,,,0.00,WUHU216HW,2013-01-19 00:34:00,
2013-01-18 19:39:00,33.2,26.4,0.00,SE,135,0.0,0.0,76,0.00,,,0.00,WUHU216HW,2013-01-19 00:39:00,
2013-01-18 19:44:00,33.2,26.4,0.00,SE,135,0.0,0.0,76,0.00,,,0.00,WUHU216HW,2013-01-19 00:44:00,
2013-01-18 19:49:00,33.0,26.2,0.00,SE,135,0.0,0.0,76,0.00,,,0.00,WUHU216HW,2013-01-19 00:49:00,
2013-01-18 19:54:00,32.9,26.1,0.00,SE,135,0.0,0.0,76,0.00,,,0.00,WUHU216HW,2013-01-19 00:54:00,
2013-01-18 19:59:00,32.7,26.2,0.00,SE,135,0.0,0.0,77,0.00,,,0.00,WUHU216HW,2013-01-19 00:59:00,
2013-01-18 20:04:00,32.7,26.2,0.00,SE,135,0.0,0.0,77,0.00,,,0.00,WUHU216HW,2013-01-19 01:04:00,
2013-01-18 20:09:00,32.5,26.1,0.00,SE,135,0.0,0.0,77,0.00,,,0.00,WUHU216HW,2013-01-19 01:09:00,
2013-01-18 20:14:00,32.1,26.1,0.00,SE,135,0.0,0.0,78,0.00,,,0.00,WUHU216HW,2013-01-19 01:14:00,
2013-01-18 20:19:00,32.1,26.1,0.00,SE,135,0.0,0.0,78,0.00,,,0.00,WUHU216HW,2013-01-19 01:19:00,
2013-01-18 20:24:00,31.8,25.7,0.00,SE,135,0.0,0.0,78,0.00,,,0.00,WUHU216HW,2013-01-19 01:24:00,
2013-01-18 20:29:00,31.8,26.0,0.00,SE,135,0.0,0.0,79,0.00,,,0.00,WUHU216HW,2013-01-19 01:29:00,
2013-01-18 20:34:00,31.8,26.0,0.00,SE,135,0.0,0.0,79,0.00,,,0.00,WUHU216HW,2013-01-19 01:34:00,
2013-01-18 20:39:00,31.8,26.0,0.00,SE,135,0.0,0.0,79,0.00,,,0.00,WUHU216HW,2013-01-19 01:39:00,
2013-01-18 20:44:00,31.6,25.9,0.00,SE,135,0.0,0.0,79,0.00,,,0.00,WUHU216HW,2013-01-19 01:44:00,
2013-01-18 20:49:00,31.6,25.9,0.00,SE,135,0.0,0.0,79,0.00,,,0.00,WUHU216HW,2013-01-19 01:49:00,
2013-01-18 20:54:00,31.2,25.8,0.00,SE,135,0.0,0.0,80,0.00,,,0.00,WUHU216HW,2013-01-19 01:54:00,
2013-01-18 20:59:00,31.2,25.8,0.00,SE,135,0.0,0.0,80,0.00,,,0.00,WUHU216HW,2013-01-19 01:59:00,
2013-01-18 21:04:00,31.1,25.7,0.00,SE,135,0.0,0.0,80,0.00,,,0.00,WUHU216HW,2013-01-19 02:04:00,
2013-01-18 21:09:00,31.1,25.7,0.00,SE,135,0.0,0.0,80,0.00,,,0.00,WUHU216HW,2013-01-19 02:09:00,
2013-01-18 21:14:00,31.1,25.7,0.00,SE,135,0.0,0.0,80,0.00,,,0.00,WUHU216HW,2013-01-19 02:14:00,
2013-01-18 21:19:00,30.9,25.8,0.00,SE,135,0.0,0.0,81,0.00,,,0.00,WUHU216HW,2013-01-19 02:19:00,
2013-01-18 21:24:00,30.7,25.6,0.00,SE,135,0.0,0.0,81,0.00,,,0.00,WUHU216HW,2013-01-19 02:24:00,
2013-01-18 21:29:00,30.7,25.6,0.00,SE,135,0.0,0.0,81,0.00,,,0.00,WUHU216HW,2013-01-19 02:29:00,
2013-01-18 21:34:00,30.7,25.6,0.00,SE,135,0.0,0.0,81,0.00,,,0.00,WUHU216HW,2013-01-19 02:34:00,
2013-01-18 21:39:00,30.7,25.6,0.00,SE,135,0.0,0.0,81,0.00,,,0.00,WUHU216HW,2013-01-19 02:39:00,
2013-01-18 21:44:00,30.7,25.6,0.00,SE,135,0.0,0.0,81,0.00,,,0.00,WUHU216HW,2013-01-19 02:44:00,
2013-01-18 21:49:00,30.7,25.6,0.00,SE,135,0.0,0.0,81,0.00,,,0.00,WUHU216HW,2013-01-19 02:49:00,
2013-01-18 21:54:00,30.7,25.9,0.00,SE,135,0.0,0.0,82,0.00,,,0.00,WUHU216HW,2013-01-19 02:54:00,
2013-01-18 21:59:00,30.7,25.9,0.00,SE,135,0.0,0.0,82,0.00,,,0.00,WUHU216HW,2013-01-19 02:59:00,
2013-01-18 22:04:00,30.7,25.9,0.00,SE,135,0.0,0.0,82,0.00,,,0.00,WUHU216HW,2013-01-19 03:04:00,
2013-01-18 22:09:00,30.7,25.9,0.00,SE,135,0.0,0.0,82,0.00,,,0.00,WUHU216HW,2013-01-19 03:09:00,
2013-01-18 22:14:00,30.7,25.9,0.00,SE,135,0.0,0.0,82,0.00,,,0.00,WUHU216HW,2013-01-19 03:14:00,
2013-01-18 22:19:00,30.7,25.9,0.00,SE,135,0.0,0.0,82,0.00,,,0.00,WUHU216HW,2013-01-19 03:19:00,
2013-01-18 22:24:00,30.5,25.7,0.00,SE,135,0.0,0.0,82,0.00,,,0.00,WUHU216HW,2013-01-19 03:24:00,
2013-01-18 22:29:00,30.3,25.5,0.00,SE,135,0.0,0.0,82,0.00,,,0.00,WUHU216HW,2013-01-19 03:29:00,
2013-01-18 22:34:00,30.3,25.5,0.00,SE,135,0.0,0.0,82,0.00,,,0.00,WUHU216HW,2013-01-19 03:34:00,
2013-01-18 22:39:00,30.3,25.5,0.00,SE,135,0.0,0.0,83,0.00,,,0.00,WUHU216HW,2013-01-19 03:39:00,
2013-01-18 22:44:00,30.3,25.8,0.00,SE,135,0.0,0.0,83,0.00,,,0.00,WUHU216HW,2013-01-19 03:44:00,
2013-01-18 22:49:00,30.3,25.8,0.00,SE,135,0.0,0.0,83,0.00,,,0.00,WUHU216HW,2013-01-19 03:49:00,
2013-01-18 22:54:00,30.3,25.8,0.00,SE,135,0.0,0.0,83,0.00,,,0.00,WUHU216HW,2013-01-19 03:54:00,
2013-01-18 22:59:00,30.3,25.8,0.00,SE,135,0.0,0.0,83,0.00,,,0.00,WUHU216HW,2013-01-19 03:59:00,
2013-01-18 23:04:00,30.3,25.8,0.00,SE,135,0.0,0.0,83,0.00,,,0.00,WUHU216HW,2013-01-19 04:04:00,
2013-01-18 23:09:00,30.3,25.8,0.00,SE,135,0.0,0.0,83,0.00,,,0.00,WUHU216HW,2013-01-19 04:09:00,
2013-01-18 23:14:00,30.0,25.4,0.00,SE,135,0.0,0.0,83,0.00,,,0.00,WUHU216HW,2013-01-19 04:14:00,
2013-01-18 23:19:00,30.0,25.4,0.00,SE,135,0.0,0.0,83,0.00,,,0.00,WUHU216HW,2013-01-19 04:19:00,
2013-01-18 23:24:00,30.0,25.4,0.00,SE,135,0.0,0.0,83,0.00,,,0.00,WUHU216HW,2013-01-19 04:24:00,
2013-01-18 23:29:00,30.0,25.4,0.00,SE,135,0.0,0.0,83,0.00,,,0.00,WUHU216HW,2013-01-19 04:29:00,
2013-01-18 23:34:00,30.0,25.4,0.00,SE,135,0.0,0.0,83,0.00,,,0.00,WUHU216HW,2013-01-19 04:34:00,
2013-01-18 23:39:00,30.0,25.4,0.00,SE,135,0.0,0.0,83,0.00,,,0.00,WUHU216HW,2013-01-19 04:39:00,
2013-01-18 23:44:00,29.8,25.3,0.00,SE,135,0.0,0.0,83,0.00,,,0.00,WUHU216HW,2013-01-19 04:44:00,
2013-01-18 23:49:00,29.8,25.3,0.00,SE,135,0.0,0.0,83,0.00,,,0.00,WUHU216HW,2013-01-19 04:49:00,
2013-01-18 23:54:00,29.8,25.3,0.00,SE,135,0.0,0.0,83,0.00,,,0.00,WUHU216HW,2013-01-19 04:54:00,
2013-01-18 23:59:00,29.8,25.3,0.00,SE,135,0.0,0.0,83,0.00,,,0.00,WUHU216HW,2013-01-19 04:59:00,